Vendor, Arkansas
Current Conditions -  °F | °C
As of 7:53 PM on Tuesday 21 Oct 2014 (Local Time) from KHRO Reporting Station
Clear Clear  
Wind Chill: 15°   Ceiling: Unl
Heat Index: 15°   Visibility: 10mi
Dew Point:   Wind: 0mph
Humidity: 67%   Direction: NA
Pressure: 30.1"   Gusts: NA
Location:  35.95°N, 93.08°W
Report Text: KHRO 220053Z AUTO 00000KT 10SM CLR 15/09 A3010 RMK AO2 SLP189 T01500089
Loading
Personal Weather Stations






























Interactive Weather Map New forecast layout! Learn more

10-Day Weather Forecast

Advertisements
Track Severe Weather on mobile